Time;durP1;ratioP1;P1;durP2;ratioP2;P2;SDS_P1;SDS_P2;PMS_P1;PMS_P2;Temp;Humidity;BMP_temperature;BMP_pressure;BME280_temperature;BME280_humidity;BME280_pressure;Samples;Min_cycle;Max_cycle;Signal;HPM_P1;HPM_P2
2021/08/21 00:00:21;;;;;;;11.55;7.18;;;;;;;18.67;84.36;100362.56;5116765;28;20454;-71
2021/08/21 00:02:50;;;;;;;10.60;6.30;;;;;;;18.75;83.85;100357.31;5116387;28;20036;-73
2021/08/21 00:05:19;;;;;;;12.05;6.57;;;;;;;18.80;83.73;100362.25;5117005;28;20043;-73
2021/08/21 00:07:47;;;;;;;9.30;6.35;;;;;;;18.84;83.42;100355.59;5116672;28;20048;-73
2021/08/21 00:10:17;;;;;;;11.60;7.05;;;;;;;18.85;83.26;100355.44;5116705;28;20054;-73
2021/08/21 00:12:45;;;;;;;9.90;6.78;;;;;;;18.85;82.85;100355.44;5115577;28;20051;-73
2021/08/21 00:15:19;;;;;;;10.48;6.35;;;;;;;18.95;82.56;100366.25;5116573;28;20051;-73
2021/08/21 00:17:49;;;;;;;11.07;6.68;;;;;;;19.07;81.72;100359.69;5116747;28;20075;-73
2021/08/21 00:20:19;;;;;;;10.68;6.30;;;;;;;19.05;81.57;100364.41;5116490;28;20093;-73
2021/08/21 00:22:47;;;;;;;11.60;7.40;;;;;;;18.93;82.35;100359.31;5116599;28;20464;-73
2021/08/21 00:25:15;;;;;;;10.43;6.30;;;;;;;18.81;83.20;100363.97;5116411;28;20472;-72
2021/08/21 00:27:44;;;;;;;11.02;6.72;;;;;;;18.76;83.28;100356.31;5116506;28;20039;-72
2021/08/21 00:30:14;;;;;;;11.40;6.85;;;;;;;18.73;83.46;100356.59;5115970;28;20134;-72
2021/08/21 00:32:42;;;;;;;10.65;6.68;;;;;;;18.85;82.94;100357.31;5116534;28;20430;-73
2021/08/21 00:35:13;;;;;;;10.85;6.78;;;;;;;18.80;83.16;100363.13;5115822;28;20044;-72
2021/08/21 00:37:42;;;;;;;10.95;7.10;;;;;;;18.76;83.03;100364.41;5116150;28;20050;-72
2021/08/21 00:40:11;;;;;;;13.43;6.80;;;;;;;18.68;83.31;100368.81;5116070;28;20816;-72
2021/08/21 00:42:39;;;;;;;10.05;6.50;;;;;;;18.57;84.18;100364.38;5116171;28;20088;-72
2021/08/21 00:45:08;;;;;;;10.25;6.47;;;;;;;18.52;84.41;100369.31;5115896;28;20052;-72
2021/08/21 00:47:37;;;;;;;11.25;6.93;;;;;;;18.46;84.91;100369.91;5115784;28;20867;-72
2021/08/21 00:50:06;;;;;;;12.10;6.97;;;;;;;18.41;85.29;100361.34;5115866;28;20446;-72
2021/08/21 00:52:36;;;;;;;9.55;6.43;;;;;;;18.28;86.14;100367.88;5115954;28;20135;-72
2021/08/21 00:55:05;;;;;;;10.25;6.63;;;;;;;18.21;87.95;100371.25;5115473;28;20039;-72
2021/08/21 00:57:33;;;;;;;9.52;6.32;;;;;;;18.26;87.70;100364.47;5115580;28;20476;-71
2021/08/21 01:00:01;;;;;;;15.40;6.50;;;;;;;18.22;87.93;100373.81;5113851;28;20047;-71
2021/08/21 01:02:32;;;;;;;10.48;6.50;;;;;;;18.25;87.96;100365.47;5115550;28;20039;-71
2021/08/21 01:05:01;;;;;;;9.13;6.00;;;;;;;18.20;88.12;100366.84;5115550;28;20074;-70
2021/08/21 01:07:33;;;;;;;10.07;6.10;;;;;;;18.27;88.00;100368.03;5115881;28;20139;-69
2021/08/21 01:10:05;;;;;;;10.52;6.43;;;;;;;18.22;88.05;100368.41;5115472;28;20044;-70
2021/08/21 01:12:35;;;;;;;10.02;6.72;;;;;;;18.15;88.58;100372.69;5115475;28;20408;-69
2021/08/21 01:15:07;;;;;;;10.52;6.63;;;;;;;18.02;89.99;100366.66;5115049;28;20043;-74
2021/08/21 01:17:36;;;;;;;13.43;7.18;;;;;;;18.10;89.31;100364.13;5114389;28;20054;-74
2021/08/21 01:20:08;;;;;;;12.25;6.72;;;;;;;18.21;89.00;100363.16;5114922;28;20040;-72
2021/08/21 01:22:37;;;;;;;9.60;5.77;;;;;;;18.07;89.75;100364.41;5115371;28;20039;-72
2021/08/21 01:25:11;;;;;;;9.70;6.47;;;;;;;17.95;90.56;100365.50;5114854;28;20675;-72
2021/08/21 01:27:41;;;;;;;11.85;6.57;;;;;;;17.98;90.92;100366.09;5115398;28;20431;-72
2021/08/21 01:30:10;;;;;;;9.20;6.43;;;;;;;17.79;91.95;100359.78;5114928;28;20047;-70
2021/08/21 01:32:39;;;;;;;11.02;6.63;;;;;;;17.79;92.25;100360.63;5115435;28;20054;-70
2021/08/21 01:35:09;;;;;;;11.48;6.68;;;;;;;17.68;93.66;100358.84;5114715;28;20043;-72
2021/08/21 01:37:37;;;;;;;11.27;7.22;;;;;;;17.79;92.87;100359.78;5114960;28;20051;-73
2021/08/21 01:40:07;;;;;;;9.18;6.75;;;;;;;17.93;92.29;100360.22;5115017;28;20493;-73
2021/08/21 01:42:38;;;;;;;10.25;6.35;;;;;;;18.03;91.46;100360.25;5115239;28;20047;-73
2021/08/21 01:45:13;;;;;;;10.82;6.22;;;;;;;17.90;92.42;100359.66;5114440;28;20047;-73
2021/08/21 01:47:43;;;;;;;10.95;7.20;;;;;;;17.83;92.76;100355.78;5114856;28;20040;-73
2021/08/21 01:50:16;;;;;;;11.70;6.95;;;;;;;17.81;93.01;100358.63;5114797;28;20031;-73
2021/08/21 01:52:47;;;;;;;10.38;6.88;;;;;;;17.73;93.60;100361.16;5114971;28;20051;-73
2021/08/21 01:55:16;;;;;;;10.65;6.57;;;;;;;17.68;93.89;100366.94;5114475;28;20104;-73
2021/08/21 01:57:47;;;;;;;8.75;6.47;;;;;;;17.73;93.71;100364.69;5114630;28;20040;-73
2021/08/21 02:00:22;;;;;;;10.45;7.07;;;;;;;17.65;94.38;100361.78;5114165;28;20406;-73
2021/08/21 02:02:53;;;;;;;11.57;7.03;;;;;;;17.59;94.69;100362.34;5114603;28;20043;-73
2021/08/21 02:05:22;;;;;;;11.55;6.68;;;;;;;17.55;95.17;100368.13;5114618;28;20047;-73
2021/08/21 02:07:50;;;;;;;10.45;6.55;;;;;;;17.43;96.29;100361.97;5114881;28;20373;-73
2021/08/21 02:10:20;;;;;;;10.32;6.35;;;;;;;17.63;95.26;100365.63;5113991;28;20058;-73
2021/08/21 02:12:49;;;;;;;10.32;6.57;;;;;;;17.61;95.19;100362.22;5114538;28;20047;-72
2021/08/21 02:15:18;;;;;;;10.52;7.05;;;;;;;17.57;95.42;100360.78;5114343;28;20047;-72
2021/08/21 02:17:46;;;;;;;9.07;6.38;;;;;;;17.53;95.48;100354.78;5114597;28;20051;-72
2021/08/21 02:20:15;;;;;;;11.07;7.13;;;;;;;17.60;94.86;100361.34;5113964;28;20071;-72
2021/08/21 02:22:45;;;;;;;12.63;7.38;;;;;;;17.53;96.48;100367.41;5114359;28;20134;-72
2021/08/21 02:25:15;;;;;;;10.25;6.43;;;;;;;17.44;96.88;100369.06;5113870;28;20089;-72
2021/08/21 02:27:54;;;;;;;10.85;6.55;;;;;;;17.43;97.31;100370.06;5114457;27;20151;-72
2021/08/21 02:30:24;;;;;;;9.45;6.05;;;;;;;17.42;97.45;100365.66;5114368;28;20047;-72
2021/08/21 02:32:53;;;;;;;11.63;6.85;;;;;;;17.46;97.76;100365.25;5114112;28;20169;-72
2021/08/21 02:35:22;;;;;;;9.98;7.10;;;;;;;17.50;97.56;100370.38;5113711;28;20103;-73
2021/08/21 02:37:50;;;;;;;10.75;6.93;;;;;;;17.50;97.26;100365.84;5113879;28;20066;-72
2021/08/21 02:40:18;;;;;;;11.10;6.82;;;;;;;17.55;97.06;100368.97;5113810;28;20044;-72
2021/08/21 02:42:47;;;;;;;11.02;6.65;;;;;;;17.67;96.36;100365.22;5113769;28;20047;-72
2021/08/21 02:45:15;;;;;;;11.65;6.93;;;;;;;17.74;95.47;100363.72;5113689;28;20035;-70
2021/08/21 02:47:45;;;;;;;9.55;6.53;;;;;;;17.72;95.45;100360.31;5113775;28;20046;-70
2021/08/21 02:50:13;;;;;;;10.27;6.82;;;;;;;17.66;95.81;100365.34;5113613;28;20476;-70
2021/08/21 02:52:42;;;;;;;10.70;7.90;;;;;;;17.57;96.86;100369.72;5113806;28;20036;-71
2021/08/21 02:55:11;;;;;;;10.65;6.93;;;;;;;17.51;97.47;100366.69;5112411;28;20051;-71
2021/08/21 02:57:39;;;;;;;9.13;6.68;;;;;;;17.47;97.50;100366.13;5113674;28;20488;-70
2021/08/21 03:00:09;;;;;;;9.90;6.55;;;;;;;17.40;97.81;100363.09;5113071;28;20043;-74
2021/08/21 03:02:40;;;;;;;10.20;6.82;;;;;;;17.41;97.75;100361.25;5113554;28;20446;-74
2021/08/21 03:05:10;;;;;;;11.80;6.90;;;;;;;17.39;98.05;100368.63;5113537;28;20093;-74
2021/08/21 03:07:38;;;;;;;9.43;6.72;;;;;;;17.31;98.61;100365.75;5113754;28;20039;-73
2021/08/21 03:10:08;;;;;;;10.02;7.07;;;;;;;17.29;98.97;100373.09;5113025;28;20101;-73
2021/08/21 03:12:36;;;;;;;11.05;7.10;;;;;;;17.29;99.06;100373.09;5113579;28;20101;-71
2021/08/21 03:15:06;;;;;;;10.43;6.72;;;;;;;17.31;99.02;100373.81;5113035;28;20039;-71
2021/08/21 03:17:36;;;;;;;14.93;7.57;;;;;;;17.22;99.44;100367.38;5113697;28;20492;-71
2021/08/21 03:20:06;;;;;;;10.57;6.65;;;;;;;17.20;99.97;100374.75;5111981;28;20499;-72
2021/08/21 03:22:36;;;;;;;12.30;7.00;;;;;;;17.20;99.80;100371.19;5114426;28;20089;-71
2021/08/21 03:25:05;;;;;;;9.32;6.47;;;;;;;17.14;100.00;100375.25;5117362;28;20093;-70
2021/08/21 03:27:34;;;;;;;11.20;6.57;;;;;;;17.12;100.00;100385.34;5117658;28;20445;-70
2021/08/21 03:30:02;;;;;;;11.10;7.05;;;;;;;17.13;100.00;100379.81;5117230;28;20453;-71
2021/08/21 03:32:31;;;;;;;11.77;6.60;;;;;;;17.11;100.00;100379.09;5117474;28;20481;-70
2021/08/21 03:34:59;;;;;;;10.98;6.90;;;;;;;17.06;100.00;100372.38;5117425;28;20040;-71
2021/08/21 03:37:28;;;;;;;12.27;7.10;;;;;;;17.06;100.00;100372.38;5117510;28;20084;-72
2021/08/21 03:39:57;;;;;;;13.07;7.53;;;;;;;17.08;100.00;100376.66;5117351;28;20050;-72
2021/08/21 03:42:26;;;;;;;9.85;6.30;;;;;;;17.24;100.00;100378.88;5116889;28;20047;-73
2021/08/21 03:44:54;;;;;;;10.43;6.70;;;;;;;17.57;97.69;100383.22;5117330;28;20036;-71
2021/08/21 03:47:22;;;;;;;11.90;7.28;;;;;;;17.63;96.76;100382.66;5116794;28;20481;-71
2021/08/21 03:49:51;;;;;;;9.60;6.70;;;;;;;17.55;97.23;100378.91;5117230;28;20123;-71
2021/08/21 03:52:19;;;;;;;9.32;6.82;;;;;;;17.76;96.38;100387.88;5116608;28;20130;-71
2021/08/21 03:54:47;;;;;;;11.13;6.88;;;;;;;17.76;95.92;100385.19;5116954;28;20051;-72
2021/08/21 03:57:17;;;;;;;9.43;6.88;;;;;;;17.62;96.58;100386.34;5116809;28;20048;-71
2021/08/21 03:59:47;;;;;;;10.57;6.57;;;;;;;17.69;96.30;100387.56;5117004;28;20039;-71
2021/08/21 04:02:15;;;;;;;9.40;6.68;;;;;;;17.59;97.14;100386.63;5115235;28;20066;-71
2021/08/21 04:04:46;;;;;;;11.18;7.22;;;;;;;17.57;97.12;100393.16;5117253;28;20464;-71
2021/08/21 04:07:16;;;;;;;10.27;7.07;;;;;;;17.64;97.00;100391.59;5116659;28;20105;-71
2021/08/21 04:09:45;;;;;;;10.18;7.07;;;;;;;17.69;97.09;100398.34;5116023;28;20158;-72
2021/08/21 04:12:16;;;;;;;11.93;7.10;;;;;;;17.66;97.08;100398.59;5116592;28;20071;-72
2021/08/21 04:14:45;;;;;;;10.05;6.97;;;;;;;17.92;95.17;100395.47;5116950;28;20134;-72
2021/08/21 04:17:14;;;;;;;11.30;6.95;;;;;;;18.02;94.64;100389.09;5116338;28;20092;-70
2021/08/21 04:19:42;;;;;;;11.50;7.13;;;;;;;18.14;94.28;100400.63;5116454;28;20051;-70
2021/08/21 04:22:11;;;;;;;10.40;6.95;;;;;;;18.19;93.55;100398.41;5116207;28;20046;-70
2021/08/21 04:24:39;;;;;;;10.18;7.10;;;;;;;18.38;92.67;100394.03;5116544;28;20054;-72
2021/08/21 04:27:08;;;;;;;10.52;6.75;;;;;;;18.79;90.79;100399.25;5115960;28;20043;-71
2021/08/21 04:29:36;;;;;;;12.68;6.35;;;;;;;19.40;87.31;100403.50;5115403;28;20412;-71
2021/08/21 04:32:09;;;;;;;10.82;6.47;;;;;;;19.91;84.43;100403.09;5116548;28;20040;-77
2021/08/21 04:34:39;;;;;;;9.32;6.20;;;;;;;20.21;82.51;100404.66;5116048;28;20047;-74
2021/08/21 04:37:07;;;;;;;9.35;6.30;;;;;;;20.40;81.24;100409.13;5116045;28;20047;-74
2021/08/21 04:39:36;;;;;;;10.13;6.25;;;;;;;20.56;80.60;100411.19;5116225;28;20056;-74
2021/08/21 04:42:05;;;;;;;9.20;6.20;;;;;;;20.41;81.78;100410.81;5115947;28;20047;-74
2021/08/21 04:44:33;;;;;;;10.32;6.78;;;;;;;20.14;82.56;100410.81;5116005;28;20488;-74
2021/08/21 04:47:01;;;;;;;10.02;7.20;;;;;;;19.82;84.08;100413.94;5115885;28;20052;-74
2021/08/21 04:49:31;;;;;;;11.07;6.68;;;;;;;19.49;86.03;100408.00;5115786;28;20043;-69
2021/08/21 04:51:59;;;;;;;10.65;6.97;;;;;;;19.33;86.95;100408.63;5116155;28;20055;-69
2021/08/21 04:54:28;;;;;;;12.32;7.15;;;;;;;19.37;86.50;100412.72;5115806;28;20096;-70
2021/08/21 04:56:56;;;;;;;10.88;7.10;;;;;;;19.70;84.82;100416.00;5115940;28;20040;-72
2021/08/21 04:59:24;;;;;;;10.50;7.40;;;;;;;19.58;84.64;100411.72;5115476;28;20092;-72
2021/08/21 05:01:52;;;;;;;12.60;7.53;;;;;;;19.68;84.32;100413.41;5115355;28;20454;-72
2021/08/21 05:04:21;;;;;;;10.15;6.78;;;;;;;19.74;84.39;100417.38;5115283;28;20096;-72
2021/08/21 05:06:56;;;;;;;9.25;6.53;;;;;;;20.00;82.66;100415.72;5115945;28;20039;-72
2021/08/21 05:09:24;;;;;;;10.20;7.05;;;;;;;19.84;83.94;100418.22;5115196;28;20039;-72
2021/08/21 05:11:53;;;;;;;9.85;6.63;;;;;;;19.76;83.26;100420.78;5115409;28;20074;-74
2021/08/21 05:14:21;;;;;;;10.43;6.45;;;;;;;19.73;82.88;100419.25;5115297;28;20050;-72
2021/08/21 05:16:50;;;;;;;9.50;6.30;;;;;;;20.14;81.88;100421.66;5115668;28;20052;-72
2021/08/21 05:19:27;;;;;;;9.63;6.15;;;;;;;20.27;80.58;100425.72;5115200;28;20040;-71
2021/08/21 05:21:58;;;;;;;13.55;6.68;;;;;;;20.39;79.85;100428.22;5115328;28;20039;-71
2021/08/21 05:24:26;;;;;;;9.93;6.10;;;;;;;20.24;80.44;100428.72;5114991;28;20047;-73
2021/08/21 05:26:57;;;;;;;9.88;6.00;;;;;;;20.21;81.17;100428.19;5115369;28;20097;-73
2021/08/21 05:29:25;;;;;;;10.38;6.07;;;;;;;20.47;79.53;100425.66;5114909;27;20465;-73
2021/08/21 05:31:56;;;;;;;9.35;6.10;;;;;;;20.57;79.15;100431.88;5115331;28;20088;-73
2021/08/21 05:34:24;;;;;;;8.32;6.05;;;;;;;20.69;78.72;100433.34;5114844;28;20039;-73
2021/08/21 05:36:52;;;;;;;10.60;6.25;;;;;;;20.97;78.13;100423.31;5115020;28;20035;-72
2021/08/21 05:39:21;;;;;;;11.75;5.97;;;;;;;21.07;76.19;100425.94;5114820;28;20055;-72
2021/08/21 05:41:50;;;;;;;8.52;6.13;;;;;;;20.81;76.97;100433.97;5114956;28;20052;-72
2021/08/21 05:44:18;;;;;;;11.35;5.60;;;;;;;20.70;77.84;100426.06;5114793;28;20061;-71
2021/08/21 05:46:49;;;;;;;9.07;6.13;;;;;;;21.18;76.44;100425.69;5114235;28;20126;-71
2021/08/21 05:49:20;;;;;;;9.50;5.05;;;;;;;21.49;74.14;100428.00;5114513;28;20079;-71
2021/08/21 05:51:49;;;;;;;8.50;5.20;;;;;;;21.88;72.17;100436.56;5114866;28;20062;-71
2021/08/21 05:54:17;;;;;;;9.85;5.38;;;;;;;21.95;71.95;100445.78;5114372;28;20085;-71
2021/08/21 05:56:46;;;;;;;7.03;4.97;;;;;;;22.37;69.58;100442.28;5115016;28;20049;-71
2021/08/21 05:59:14;;;;;;;7.90;5.30;;;;;;;22.98;67.49;100441.16;5114537;28;20085;-71
2021/08/21 06:01:43;;;;;;;8.35;5.45;;;;;;;23.27;65.08;100438.78;5114532;28;20072;-74
2021/08/21 06:04:11;;;;;;;7.57;4.95;;;;;;;23.86;63.03;100444.88;5114206;28;20032;-81
2021/08/21 06:06:39;;;;;;;7.38;4.93;;;;;;;24.26;61.72;100446.63;5114600;28;20044;-72
2021/08/21 06:09:07;;;;;;;9.05;4.78;;;;;;;24.49;61.58;100438.53;5114789;28;20039;-72
2021/08/21 06:11:36;;;;;;;7.47;4.97;;;;;;;24.86;60.82;100434.25;5114185;28;20396;-73
2021/08/21 06:14:05;;;;;;;8.43;4.90;;;;;;;24.75;60.31;100448.31;5114431;28;20036;-72
2021/08/21 06:16:33;;;;;;;8.68;4.68;;;;;;;25.10;58.60;100450.50;5113901;28;20138;-73
2021/08/21 06:19:02;;;;;;;8.95;4.95;;;;;;;25.22;59.20;100447.34;5114411;28;20047;-73
2021/08/21 06:21:30;;;;;;;8.00;5.03;;;;;;;25.36;57.84;100449.25;5113654;28;20486;-74
2021/08/21 06:23:58;;;;;;;8.52;4.90;;;;;;;25.73;56.24;100453.91;5114442;28;20039;-74
2021/08/21 06:26:26;;;;;;;8.80;4.95;;;;;;;25.21;58.13;100448.38;5113861;28;20039;-74
2021/08/21 06:28:54;;;;;;;8.00;4.88;;;;;;;25.69;56.19;100461.63;5114470;28;20035;-74
2021/08/21 06:31:24;;;;;;;7.45;4.53;;;;;;;24.69;58.97;100447.13;5113309;28;20134;-74
2021/08/21 06:33:53;;;;;;;7.25;4.80;;;;;;;25.48;57.50;100453.28;5114173;28;20138;-74
2021/08/21 06:36:21;;;;;;;7.65;4.93;;;;;;;26.01;55.01;100451.41;5113680;28;20044;-74
2021/08/21 06:38:49;;;;;;;8.05;4.32;;;;;;;25.96;56.25;100448.38;5113696;28;20058;-74
2021/08/21 06:41:17;;;;;;;7.18;4.35;;;;;;;26.04;55.47;100442.81;5113467;28;20039;-74
2021/08/21 06:43:45;;;;;;;7.65;4.35;;;;;;;26.12;54.46;100450.94;5113815;28;20052;-74
2021/08/21 06:46:13;;;;;;;6.68;4.32;;;;;;;26.08;55.14;100449.63;5113915;28;20071;-78
2021/08/21 06:48:43;;;;;;;12.13;4.80;;;;;;;26.07;55.03;100452.56;5113647;28;20075;-74
2021/08/21 06:51:11;;;;;;;8.25;4.18;;;;;;;25.61;56.50;100460.84;5113800;28;20077;-74
2021/08/21 06:53:40;;;;;;;8.00;3.75;;;;;;;26.21;54.62;100449.81;5113534;28;20093;-74
2021/08/21 06:56:08;;;;;;;5.82;4.10;;;;;;;25.98;54.41;100449.06;5113476;28;20040;-75
2021/08/21 06:58:37;;;;;;;7.35;3.97;;;;;;;25.80;55.43;100462.22;5113506;28;20429;-74
2021/08/21 07:01:05;;;;;;;7.00;3.85;;;;;;;25.47;55.98;100459.75;5113423;28;20427;-74
2021/08/21 07:03:34;;;;;;;8.25;3.83;;;;;;;24.78;58.38;100450.66;5113100;28;20515;-74
2021/08/21 07:06:04;;;;;;;8.63;4.18;;;;;;;24.53;59.47;100458.16;5113436;28;20052;-74
2021/08/21 07:08:32;;;;;;;6.85;4.13;;;;;;;24.53;59.23;100456.28;5113202;28;20064;-74
2021/08/21 07:11:00;;;;;;;7.25;4.15;;;;;;;24.37;59.65;100455.47;5113282;28;20388;-74
2021/08/21 07:13:28;;;;;;;8.38;4.10;;;;;;;24.51;59.87;100458.34;5113492;28;20044;-74
2021/08/21 07:15:57;;;;;;;6.80;3.85;;;;;;;24.62;58.40;100456.22;5113379;28;20039;-74
2021/08/21 07:18:25;;;;;;;5.55;3.92;;;;;;;24.43;58.69;100461.09;5113230;28;20043;-71
2021/08/21 07:20:54;;;;;;;8.15;4.10;;;;;;;24.30;59.78;100463.47;5113351;28;20040;-69
2021/08/21 07:23:24;;;;;;;10.23;3.95;;;;;;;24.27;60.16;100469.28;5113130;28;20141;-69
2021/08/21 07:25:52;;;;;;;6.32;3.72;;;;;;;24.44;59.54;100468.25;5111857;28;20055;-72
2021/08/21 07:28:21;;;;;;;6.72;3.70;;;;;;;24.31;59.15;100465.19;5112913;28;20122;-73
2021/08/21 07:30:49;;;;;;;7.38;3.58;;;;;;;24.28;59.96;100474.56;5113427;28;20055;-70
2021/08/21 07:33:17;;;;;;;8.90;3.80;;;;;;;24.28;59.96;100470.97;5113541;28;20088;-70
2021/08/21 07:35:46;;;;;;;5.68;3.60;;;;;;;24.25;60.68;100469.47;5113184;28;20044;-72
2021/08/21 07:38:14;;;;;;;5.35;3.50;;;;;;;24.28;60.03;100473.72;5113223;28;20496;-72
2021/08/21 07:40:43;;;;;;;6.47;3.78;;;;;;;24.30;60.84;100468.06;5113174;28;20054;-71
2021/08/21 07:43:12;;;;;;;8.90;4.28;;;;;;;24.38;60.44;100474.38;5113241;28;20054;-71
2021/08/21 07:45:42;;;;;;;7.75;3.85;;;;;;;24.28;59.03;100474.56;5112676;28;20046;-72
2021/08/21 07:48:11;;;;;;;8.32;3.45;;;;;;;24.34;59.19;100481.22;5113245;28;20047;-72
2021/08/21 07:50:39;;;;;;;5.72;3.58;;;;;;;24.41;59.42;100479.47;5112795;28;20047;-73
2021/08/21 07:53:12;;;;;;;5.90;3.60;;;;;;;24.35;59.04;100482.06;5113055;28;20047;-72
2021/08/21 07:55:40;;;;;;;5.03;3.17;;;;;;;24.38;59.09;100481.72;5112639;28;20134;-70
2021/08/21 07:58:10;;;;;;;7.35;3.50;;;;;;;24.42;58.45;100483.94;5112960;28;20044;-70
2021/08/21 08:00:38;;;;;;;5.03;3.38;;;;;;;24.54;58.11;100487.97;5112711;28;20440;-70
2021/08/21 08:03:11;;;;;;;4.95;3.28;;;;;;;24.63;57.47;100479.75;5113198;28;20050;-69
2021/08/21 08:05:39;;;;;;;4.60;2.95;;;;;;;24.60;55.93;100488.25;5112773;28;20373;-69
2021/08/21 08:08:08;;;;;;;6.07;3.20;;;;;;;24.61;56.12;100479.06;5113130;28;20039;-69
2021/08/21 08:10:36;;;;;;;6.30;3.25;;;;;;;24.62;55.16;100478.91;5116637;28;20392;-68
2021/08/21 08:13:05;;;;;;;6.05;2.72;;;;;;;24.64;55.49;100478.72;5115720;28;20052;-68
2021/08/21 08:15:35;;;;;;;5.45;3.00;;;;;;;24.93;54.63;100481.63;5116068;28;20048;-68
2021/08/21 08:18:03;;;;;;;4.85;3.15;;;;;;;24.71;52.77;100486.00;5118759;28;20096;-70
2021/08/21 08:20:31;;;;;;;5.30;2.92;;;;;;;24.70;54.45;100486.16;5115990;28;20115;-70
2021/08/21 08:23:00;;;;;;;3.80;2.58;;;;;;;24.92;53.45;100496.31;5116291;28;20039;-69
2021/08/21 08:25:28;;;;;;;4.60;2.78;;;;;;;24.74;53.51;100493.84;5116086;28;20035;-73
2021/08/21 08:27:56;;;;;;;5.43;2.63;;;;;;;24.72;54.33;100489.59;5116283;28;20040;-73
2021/08/21 08:30:25;;;;;;;4.82;2.90;;;;;;;24.88;54.59;100497.66;5116619;28;20036;-73
2021/08/21 08:32:56;;;;;;;5.15;3.22;;;;;;;25.05;54.67;100501.19;5116715;28;20062;-72
2021/08/21 08:35:24;;;;;;;5.05;3.10;;;;;;;25.00;54.60;100493.53;5116463;28;20048;-71
2021/08/21 08:37:53;;;;;;;8.02;3.10;;;;;;;25.05;53.42;100498.47;5115899;28;20516;-74
2021/08/21 08:40:26;;;;;;;4.00;2.20;;;;;;;25.07;48.59;100499.97;5114647;28;20082;-72
2021/08/21 08:42:54;;;;;;;5.38;2.47;;;;;;;25.02;50.10;100499.69;5115757;28;20390;-72
2021/08/21 08:45:22;;;;;;;6.35;2.55;;;;;;;25.15;49.07;100495.50;5116270;28;20039;-68
2021/08/21 08:47:50;;;;;;;5.82;2.35;;;;;;;25.31;48.64;100498.13;5114574;28;20472;-67
2021/08/21 08:50:21;;;;;;;3.72;2.40;;;;;;;25.52;48.65;100483.78;5115875;28;20542;-68
2021/08/21 08:52:51;;;;;;;3.85;2.30;;;;;;;25.54;47.99;100495.38;5115600;28;20452;-67
2021/08/21 08:55:21;;;;;;;3.38;2.10;;;;;;;25.46;48.16;100493.56;5115851;28;20093;-70
2021/08/21 08:57:52;;;;;;;4.80;2.40;;;;;;;25.47;48.05;100489.78;5115460;28;20553;-69
2021/08/21 09:00:23;;;;;;;3.83;2.33;;;;;;;25.39;48.79;100485.25;5115969;28;20374;-69
2021/08/21 09:02:53;;;;;;;5.07;2.60;;;;;;;25.52;49.04;100489.25;5115210;28;20047;-69
2021/08/21 09:05:25;;;;;;;4.13;2.30;;;;;;;25.62;48.10;100487.97;5115491;28;20385;-70
2021/08/21 09:07:55;;;;;;;4.97;2.22;;;;;;;25.56;46.94;100488.69;5115174;28;20039;-75
2021/08/21 09:10:27;;;;;;;3.70;2.25;;;;;;;25.44;47.27;100494.78;5115898;28;20537;-66
2021/08/21 09:13:05;;;;;;;4.28;2.20;;;;;;;25.40;48.26;100483.38;5114535;28;20055;-67
2021/08/21 09:15:35;;;;;;;3.80;2.30;;;;;;;25.56;47.78;100488.69;5115071;28;20093;-67
2021/08/21 09:18:09;;;;;;;4.43;2.20;;;;;;;25.62;46.88;100495.31;5115396;28;20431;-68
2021/08/21 09:20:58;;;;;;;5.47;2.50;;;;;;;25.65;47.42;100486.75;5114665;28;20040;-67
2021/08/21 09:23:30;;;;;;;4.60;2.78;;;;;;;25.63;47.71;100486.94;5115808;28;20055;-67
2021/08/21 09:26:07;;;;;;;3.72;2.20;;;;;;;25.61;47.45;100485.41;5115168;28;20044;-67
2021/08/21 09:28:36;;;;;;;3.92;2.40;;;;;;;25.69;46.83;100486.19;5115289;28;20446;-67
2021/08/21 09:31:07;;;;;;;5.18;2.05;;;;;;;25.49;48.11;100481.44;5114999;28;20119;-68
2021/08/21 09:33:37;;;;;;;4.40;2.30;;;;;;;25.64;47.32;100483.16;5114660;28;20069;-67
2021/08/21 09:36:12;;;;;;;4.85;2.50;;;;;;;25.57;47.88;100479.47;5113642;28;20052;-67
2021/08/21 09:38:41;;;;;;;4.70;2.33;;;;;;;25.73;47.63;100477.66;5115536;28;20480;-68
2021/08/21 09:41:10;;;;;;;4.28;2.47;;;;;;;25.96;47.04;100478.44;5115366;28;20067;-67
2021/08/21 09:43:39;;;;;;;5.40;2.65;;;;;;;26.14;46.82;100481.66;5115041;28;20056;-67
2021/08/21 09:46:17;;;;;;;4.93;2.33;;;;;;;26.19;45.32;100473.75;5114933;28;20044;-67
2021/08/21 09:49:01;;;;;;;5.53;2.40;;;;;;;26.10;44.41;100469.41;5114705;28;20381;-69
2021/08/21 09:51:33;;;;;;;4.28;2.30;;;;;;;26.22;44.39;100473.38;5113833;28;20408;-68
2021/08/21 09:54:02;;;;;;;4.23;2.20;;;;;;;26.15;44.56;100471.56;5114706;28;20100;-68
2021/08/21 09:56:31;;;;;;;8.18;2.55;;;;;;;26.29;44.71;100472.63;5114668;28;20040;-68
2021/08/21 09:58:59;;;;;;;3.75;2.10;;;;;;;26.55;43.35;100458.50;5114725;28;20043;-68
2021/08/21 10:01:28;;;;;;;4.68;2.30;;;;;;;26.61;43.20;100468.66;5114702;28;20066;-68
2021/08/21 10:03:57;;;;;;;4.20;2.42;;;;;;;26.65;42.96;100470.84;5114489;28;20093;-68
2021/08/21 10:06:27;;;;;;;4.68;2.58;;;;;;;26.63;42.04;100470.16;5114453;28;20052;-68
2021/08/21 10:09:00;;;;;;;4.50;2.10;;;;;;;26.53;42.13;100466.88;5114147;28;20040;-68
2021/08/21 10:11:29;;;;;;;7.07;2.53;;;;;;;26.70;42.55;100464.78;5114750;28;20131;-68
2021/08/21 10:13:58;;;;;;;3.33;2.00;;;;;;;26.67;40.43;100470.66;5113872;28;20050;-70
2021/08/21 10:16:27;;;;;;;4.93;2.58;;;;;;;26.54;41.19;100460.41;5114169;28;20068;-70
2021/08/21 10:18:55;;;;;;;3.70;1.88;;;;;;;26.71;39.86;100464.59;5113986;28;20423;-72
2021/08/21 10:21:24;;;;;;;3.53;2.08;;;;;;;26.90;40.16;100460.38;5114307;28;20050;-71
2021/08/21 10:23:53;;;;;;;4.28;2.25;;;;;;;26.98;40.19;100457.53;5113801;28;20449;-71
2021/08/21 10:26:29;;;;;;;3.53;2.35;;;;;;;27.25;40.58;100460.59;5114358;28;20119;-77
2021/08/21 10:29:00;;;;;;;4.35;2.10;;;;;;;27.24;39.28;100450.69;5113648;28;20088;-78
2021/08/21 10:31:41;;;;;;;5.40;2.05;;;;;;;27.26;38.46;100454.91;5113899;28;20044;-73
2021/08/21 10:34:10;;;;;;;4.55;2.20;;;;;;;27.39;38.75;100448.69;5113494;28;20502;-74
2021/08/21 10:36:48;;;;;;;6.03;2.50;;;;;;;27.56;38.94;100446.53;5113894;28;20396;-74
2021/08/21 10:39:22;;;;;;;5.03;2.35;;;;;;;27.29;38.58;100451.78;5113955;28;20058;-73
2021/08/21 10:41:54;;;;;;;4.00;2.38;;;;;;;27.37;38.87;100451.63;5113519;28;20051;-74
2021/08/21 10:44:42;;;;;;;6.13;2.45;;;;;;;27.54;38.71;100445.88;5113920;28;20046;-74
2021/08/21 10:47:31;;;;;;;5.07;2.30;;;;;;;27.34;38.45;100440.25;5112354;28;20052;-73
2021/08/21 10:50:00;;;;;;;6.50;2.22;;;;;;;27.26;37.84;100452.16;5113027;28;20408;-74
2021/08/21 10:52:53;;;;;;;4.90;2.20;;;;;;;27.34;38.13;100451.19;5113818;28;20104;-74
2021/08/21 10:55:24;;;;;;;4.63;2.17;;;;;;;27.29;38.01;100443.56;5113694;28;20046;-72
2021/08/21 10:58:09;;;;;;;4.72;2.10;;;;;;;27.26;37.90;100449.44;5113183;28;20040;-73
2021/08/21 11:01:01;;;;;;;3.95;2.20;;;;;;;27.43;38.52;100443.69;5113464;28;20075;-72
2021/08/21 11:03:51;;;;;;;5.65;2.42;;;;;;;27.41;38.60;100437.53;5112408;28;20053;-74
2021/08/21 11:06:33;;;;;;;3.63;1.92;;;;;;;27.28;38.83;100444.59;5111062;28;20480;-74
2021/08/21 11:09:08;;;;;;;3.25;2.17;;;;;;;27.38;39.07;100447.00;5113161;28;20096;-73
2021/08/21 11:11:43;;;;;;;5.07;2.20;;;;;;;27.34;37.53;100445.72;5113216;28;20048;-74
2021/08/21 11:14:39;;;;;;;2.97;1.83;;;;;;;27.21;38.31;100446.41;5113562;28;20377;-71
2021/08/21 11:17:16;;;;;;;3.78;2.28;;;;;;;27.41;38.22;100443.91;5112782;28;20471;-71
2021/08/21 11:19:47;;;;;;;3.95;2.20;;;;;;;27.48;38.50;100452.16;5113481;28;20047;-72
2021/08/21 11:22:31;;;;;;;3.90;2.30;;;;;;;27.59;38.99;100452.47;5113227;28;20135;-71
2021/08/21 11:25:07;;;;;;;3.03;1.90;;;;;;;27.81;36.61;100447.84;5113308;28;20040;-71
2021/08/21 11:27:43;;;;;;;4.55;2.30;;;;;;;27.99;36.43;100435.50;5113446;28;20461;-72
2021/08/21 11:30:27;;;;;;;3.80;1.92;;;;;;;28.05;35.88;100441.03;5113352;28;20113;-73
2021/08/21 11:33:01;;;;;;;5.63;2.13;;;;;;;28.07;36.04;100436.19;5113404;28;20122;-72
2021/08/21 11:35:32;;;;;;;3.88;2.25;;;;;;;28.34;35.13;100442.69;5113391;28;20511;-77